Time;durP1;ratioP1;P1;durP2;ratioP2;P2;SDS_P1;SDS_P2;PMS_P1;PMS_P2;Temp;Humidity;BMP_temperature;BMP_pressure;BME280_temperature;BME280_humidity;BME280_pressure;Samples;Min_cycle;Max_cycle;Signal;HPM_P1;HPM_P2
2022/10/04 00:01:07;;;;;;;13.70;12.30;;;;;;;;;;10495963;28;20276;-80
2022/10/04 00:06:14;;;;;;;12.77;11.30;;;;;;;;;;10487532;28;20285;-81
2022/10/04 00:11:20;;;;;;;12.50;11.40;;;;;;;;;;10452725;28;20243;-81
2022/10/04 00:16:27;;;;;;;12.03;11.00;;;;;;;;;;10450638;28;20656;-80
2022/10/04 00:21:44;;;;;;;12.43;11.23;;;;;;;;;;10467851;28;20668;-79
2022/10/04 00:27:11;;;;;;;11.97;10.87;;;;;;;;;;10432721;28;20294;-81
2022/10/04 00:32:28;;;;;;;12.67;11.30;;;;;;;;;;10450110;28;20261;-80
2022/10/04 00:37:50;;;;;;;12.57;11.27;;;;;;;;;;10469218;28;20727;-81
2022/10/04 00:42:57;;;;;;;13.03;11.83;;;;;;;;;;10450150;28;20201;-82
2022/10/04 00:48:22;;;;;;;11.90;10.90;;;;;;;;;;10468413;28;20228;-80
2022/10/04 00:53:37;;;;;;;13.73;12.40;;;;;;;;;;10469804;28;20197;-81
2022/10/04 00:58:50;;;;;;;12.60;11.40;;;11.30;99.90;;;;;;10457076;28;20221;-81
2022/10/04 01:03:56;;;;;;;11.70;10.60;;;11.10;99.90;;;;;;10464879;28;20189;-81
2022/10/04 01:09:06;;;;;;;11.40;10.30;;;11.10;99.90;;;;;;10447862;28;20242;-80
2022/10/04 01:14:21;;;;;;;12.50;11.20;;;11.10;99.90;;;;;;10448328;28;20229;-79
2022/10/04 01:19:30;;;;;;;11.50;10.63;;;11.00;99.90;;;;;;10448188;28;20217;-81
2022/10/04 01:24:36;;;;;;;12.53;11.30;;;11.00;99.90;;;;;;10433716;28;20276;-80
2022/10/04 01:29:38;;;;;;;11.80;10.80;;;11.00;99.90;;;;;;10466879;28;20658;-81
2022/10/04 01:34:41;;;;;;;12.20;11.20;;;10.90;99.90;;;;;;10468016;28;20719;-82
2022/10/04 01:39:44;;;;;;;12.80;10.93;;;10.90;99.90;;;;;;10449591;28;20221;-79
2022/10/04 01:44:55;;;;;;;19.33;16.37;;;10.90;99.90;;;;;;10469691;28;20191;-81
2022/10/04 01:50:01;;;;;;;14.93;13.57;;;10.80;99.90;;;;;;10472665;28;20285;-81
2022/10/04 01:55:11;;;;;;;15.00;13.60;;;10.70;99.90;;;;;;10434353;28;20232;-80
2022/10/04 02:00:14;;;;;;;12.87;11.83;;;10.70;99.90;;;;;;10447445;28;20245;-80
2022/10/04 02:05:20;;;;;;;15.30;13.83;;;10.70;99.90;;;;;;10447343;28;20639;-81
2022/10/04 02:10:26;;;;;;;12.33;11.33;;;10.70;99.90;;;;;;10448264;28;20221;-81
2022/10/04 02:15:28;;;;;;;13.90;12.70;;;10.70;99.90;;;;;;10446566;28;20244;-80
2022/10/04 02:20:31;;;;;;;15.70;14.20;;;10.70;99.90;;;;;;10434874;28;20225;-81
2022/10/04 02:25:36;;;;;;;14.80;13.40;;;10.70;99.90;;;;;;10446042;28;20197;-80
2022/10/04 02:30:40;;;;;;;16.23;14.40;;;10.70;99.90;;;;;;10427301;28;20196;-80
2022/10/04 02:35:46;;;;;;;14.77;13.43;;;10.70;99.90;;;;;;10472665;28;20859;-81
2022/10/04 02:40:56;;;;;;;12.90;11.80;;;10.70;99.90;;;;;;10463920;28;20195;-81
2022/10/04 02:46:06;;;;;;;14.03;12.73;;;10.60;99.90;;;;;;10462683;28;20240;-81
2022/10/04 02:51:18;;;;;;;15.87;14.47;;;10.50;99.90;;;;;;10444694;28;20209;-82
2022/10/04 02:56:23;;;;;;;14.87;13.60;;;10.50;99.90;;;;;;10445166;28;20228;-81
2022/10/04 03:01:28;;;;;;;17.47;14.87;;;10.50;99.90;;;;;;10431154;28;20207;-81
2022/10/04 03:06:32;;;;;;;22.80;18.17;;;10.50;99.90;;;;;;10459940;28;20221;-81
2022/10/04 03:11:39;;;;;;;16.83;15.23;;;10.50;99.90;;;;;;10432749;28;20192;-81
2022/10/04 03:16:45;;;;;;;15.60;14.23;;;10.50;99.90;;;;;;10492991;28;20220;-81
2022/10/04 03:21:51;;;;;;;23.63;21.07;;;10.50;99.90;;;;;;10478557;28;20204;-81
2022/10/04 03:26:56;;;;;;;15.87;14.20;;;10.50;99.90;;;;;;10454264;28;20241;-81
2022/10/04 03:32:02;;;;;;;21.00;19.10;;;10.50;99.90;;;;;;10445875;28;20193;-81
2022/10/04 03:37:07;;;;;;;16.50;14.90;;;10.50;99.90;;;;;;10430852;28;20234;-82
2022/10/04 03:42:14;;;;;;;16.17;14.87;;;10.50;99.90;;;;;;10457140;28;20237;-81
2022/10/04 03:47:21;;;;;;;16.33;15.00;;;10.50;99.90;;;;;;10448874;28;20244;-80
2022/10/04 03:52:26;;;;;;;20.63;18.63;;;10.50;99.90;;;;;;10455567;28;20571;-82
2022/10/04 03:57:30;;;;;;;15.10;13.80;;;10.40;99.90;;;;;;10467978;28;20221;-81
2022/10/04 04:02:38;;;;;;;11.67;10.77;;;10.40;99.90;;;;;;10445349;28;20208;-81
2022/10/04 04:07:46;;;;;;;14.13;13.13;;;10.40;99.90;;;;;;10463738;28;20232;-81
2022/10/04 04:12:55;;;;;;;37.73;33.33;;;10.40;99.90;;;;;;10441467;28;20212;-82
2022/10/04 04:18:01;;;;;;;13.57;12.57;;;10.40;99.90;;;;;;10446484;28;20288;-79
2022/10/04 04:23:11;;;;;;;12.93;11.80;;;10.40;99.90;;;;;;10478492;28;20581;-81
2022/10/04 04:28:24;;;;;;;14.03;12.80;;;10.40;99.90;;;;;;10475029;28;20284;-80
2022/10/04 04:33:31;;;;;;;16.00;14.70;;;10.40;99.90;;;;;;10466884;28;20217;-80
2022/10/04 04:38:35;;;;;;;13.93;12.83;;;10.40;99.90;;;;;;10464937;28;20244;-81
2022/10/04 04:43:44;;;;;;;14.73;13.53;;;10.40;99.90;;;;;;10475924;28;20209;-80
2022/10/04 04:48:48;;;;;;;13.70;12.40;;;10.40;99.90;;;;;;10435173;28;20705;-80
2022/10/04 04:53:52;;;;;;;15.97;14.70;;;10.40;99.90;;;;;;10473973;28;20194;-80
2022/10/04 04:59:00;;;;;;;16.20;14.70;;;10.40;99.90;;;;;;10437579;28;20752;-79
2022/10/04 05:04:05;;;;;;;16.87;15.47;;;10.40;99.90;;;;;;10435872;28;20223;-81
2022/10/04 05:09:25;;;;;;;17.90;16.47;;;10.30;99.90;;;;;;10452591;28;20216;-81
2022/10/04 05:14:30;;;;;;;14.40;13.30;;;10.40;99.90;;;;;;10485877;28;20295;-80
2022/10/04 05:19:36;;;;;;;12.70;11.70;;;10.40;99.90;;;;;;10481010;28;20303;-80
2022/10/04 05:24:41;;;;;;;13.03;11.87;;;10.40;99.90;;;;;;10460226;28;20223;-81
2022/10/04 05:30:04;;;;;;;13.93;12.43;;;10.40;99.90;;;;;;10439337;28;20239;-81
2022/10/04 05:35:16;;;;;;;13.30;12.30;;;10.40;99.90;;;;;;10455972;28;20235;-81
2022/10/04 05:40:31;;;;;;;13.37;12.27;;;10.30;99.90;;;;;;10453657;28;20688;-81
2022/10/04 05:45:35;;;;;;;14.90;13.30;;;10.30;99.90;;;;;;10443369;28;20196;-79
2022/10/04 05:50:39;;;;;;;12.33;10.53;;;10.30;99.90;;;;;;10446483;28;20267;-82
2022/10/04 05:55:51;;;;;;;13.30;12.30;;;10.40;99.90;;;;;;10430169;28;20299;-82
2022/10/04 06:01:24;;;;;;;15.67;14.10;;;10.50;99.90;;;;;;10439356;23;20245;-78
2022/10/04 06:06:35;;;;;;;22.83;19.90;;;10.60;99.90;;;;;;10393077;28;20210;-78
2022/10/04 06:11:49;;;;;;;14.57;13.47;;;10.70;99.90;;;;;;10416215;28;20236;-78
2022/10/04 06:17:15;;;;;;;15.20;14.00;;;10.70;99.90;;;;;;10416935;28;20222;-79
2022/10/04 06:22:18;;;;;;;12.83;11.93;;;10.80;99.90;;;;;;10419993;28;20185;-78
2022/10/04 06:27:26;;;;;;;14.10;13.10;;;11.00;99.90;;;;;;10416157;28;20220;-78
2022/10/04 06:32:52;;;;;;;13.33;12.30;;;11.00;99.90;;;;;;10414655;28;20217;-79
2022/10/04 06:38:22;;;;;;;13.70;12.47;;;11.10;99.90;;;;;;10414173;28;20217;-79
2022/10/04 06:43:38;;;;;;;13.90;12.80;;;11.20;99.90;;;;;;10414767;28;20190;-79
2022/10/04 06:49:06;;;;;;;13.47;12.50;;;11.30;99.90;;;;;;10398128;28;20212;-78
2022/10/04 06:54:22;;;;;;;15.53;14.03;;;11.40;99.90;;;;;;10415933;28;20292;-79
2022/10/04 06:59:48;;;;;;;14.70;13.50;;;11.50;99.90;;;;;;10416702;28;20221;-78
2022/10/04 07:04:57;;;;;;;12.50;11.40;;;11.70;99.90;;;;;;10414305;28;20212;-79
2022/10/04 07:10:16;;;;;;;12.73;11.57;;;11.90;99.90;;;;;;10413892;28;20875;-79
2022/10/04 07:15:24;;;;;;;12.07;11.07;;;12.00;99.90;;;;;;10393733;28;20241;-78
2022/10/04 07:20:31;;;;;;;12.87;11.97;;;12.10;99.90;;;;;;10414224;28;20214;-79
2022/10/04 07:25:36;;;;;;;17.27;13.10;;;12.20;99.90;;;;;;10411124;28;20194;-78
2022/10/04 07:30:43;;;;;;;12.00;11.00;;;12.30;99.90;;;;;;10408821;28;20260;-79
2022/10/04 07:35:50;;;;;;;12.13;11.23;;;12.40;99.90;;;;;;10414708;28;20210;-80
2022/10/04 07:41:06;;;;;;;14.00;11.00;;;12.50;99.90;;;;;;10417378;28;20651;-80
2022/10/04 07:46:17;;;;;;;14.77;13.27;;;12.70;99.90;;;;;;10416540;28;20248;-80
2022/10/04 07:51:29;;;;;;;11.93;11.00;;;12.80;99.90;;;;;;10418498;28;20190;-79
2022/10/04 07:56:37;;;;;;;12.47;11.47;;;12.90;99.90;;;;;;10423453;28;20985;-79
2022/10/04 08:01:45;;;;;;;12.13;11.00;;;13.00;99.90;;;;;;10429175;28;20194;-80
2022/10/04 08:06:57;;;;;;;12.70;11.50;;;13.10;99.90;;;;;;10424020;28;20216;-80
2022/10/04 08:12:07;;;;;;;20.80;13.70;;;13.20;99.90;;;;;;10426295;28;20198;-79
2022/10/04 08:17:17;;;;;;;16.47;12.17;;;13.30;99.90;;;;;;10424295;28;20225;-80
2022/10/04 08:22:32;;;;;;;12.43;11.23;;;13.40;99.90;;;;;;10423842;28;20835;-80
2022/10/04 08:33:12;;;;;;;12.70;11.50;;;13.60;99.90;;;;;;10420316;28;20578;-79
2022/10/04 08:38:43;;;;;;;13.43;12.23;;;13.60;99.90;;;;;;10422047;28;20279;-78
2022/10/04 08:44:22;;;;;;;12.10;11.00;;;13.60;99.90;;;;;;10418882;28;20201;-78
2022/10/04 08:49:47;;;;;;;13.03;11.87;;;13.70;99.90;;;;;;10376705;28;20256;-78
2022/10/04 08:55:33;;;;;;;12.87;11.53;;;13.80;99.90;;;;;;10417043;28;20190;-78
2022/10/04 09:00:50;;;;;;;12.40;11.33;;;13.80;99.90;;;;;;10415782;28;20248;-79
2022/10/04 09:06:18;;;;;;;12.43;10.80;;;13.80;99.90;;;;;;10416817;28;20201;-78
2022/10/04 09:11:49;;;;;;;11.60;10.53;;;13.80;99.90;;;;;;10422540;28;20224;-77
2022/10/04 09:17:02;;;;;;;11.43;10.60;;;13.80;99.90;;;;;;10413382;28;20232;-78
2022/10/04 09:22:18;;;;;;;10.13;9.40;;;13.80;99.90;;;;;;10415219;28;20206;-78
2022/10/04 09:27:41;;;;;;;10.30;9.40;;;13.80;99.90;;;;;;10415188;28;20601;-78
2022/10/04 09:33:01;;;;;;;9.50;8.47;;;13.90;99.90;;;;;;10416370;28;20284;-78
2022/10/04 09:38:24;;;;;;;10.30;9.30;;;14.00;99.90;;;;;;10416054;28;20217;-78
2022/10/04 09:44:07;;;;;;;8.57;7.90;;;14.20;99.90;;;;;;10401115;28;20217;-78
2022/10/04 09:49:22;;;;;;;8.37;7.67;;;14.30;99.90;;;;;;10415312;28;20715;-78
2022/10/04 09:55:03;;;;;;;10.40;9.43;;;14.50;99.90;;;;;;10414122;28;20549;-78
2022/10/04 10:00:21;;;;;;;7.50;6.90;;;14.60;99.90;;;;;;10415242;28;20804;-77
2022/10/04 10:05:49;;;;;;;6.70;6.00;;;14.70;99.90;;;;;;10372529;28;20195;-77
2022/10/04 10:16:32;;;;;;;5.07;4.67;;;14.90;99.90;;;;;;10412768;28;20257;-77
2022/10/04 10:22:10;;;;;;;8.87;5.70;;;14.90;99.90;;;;;;10412102;28;20201;-77
2022/10/04 10:27:24;;;;;;;8.53;6.40;;;15.00;99.90;;;;;;10371131;28;20909;-78
2022/10/04 10:32:46;;;;;;;6.97;6.37;;;15.00;99.90;;;;;;10413133;28;20633;-77
2022/10/04 10:38:15;;;;;;;6.70;5.90;;;15.10;99.90;;;;;;10410714;28;20581;-77
2022/10/04 10:43:40;;;;;;;6.70;6.20;;;15.20;99.90;;;;;;10400948;28;20251;-78
2022/10/04 10:48:57;;;;;;;5.30;4.90;;;15.20;99.90;;;;;;10410065;28;20631;-77
2022/10/04 10:54:30;;;;;;;8.80;7.90;;;15.30;99.90;;;;;;10411614;28;20204;-78
2022/10/04 11:00:04;;;;;;;8.73;7.83;;;15.30;99.90;;;;;;10412030;28;20570;-78
2022/10/04 11:05:37;;;;;;;8.20;7.13;;;15.30;99.90;;;;;;10412179;28;20194;-77
2022/10/04 11:11:12;;;;;;;8.97;6.13;;;15.40;99.90;;;;;;10410572;28;20233;-77
2022/10/04 11:16:55;;;;;;;6.80;6.20;;;15.40;99.90;;;;;;10412504;28;20220;-77
2022/10/04 11:22:43;;;;;;;6.50;6.00;;;15.40;99.90;;;;;;10374093;28;20308;-78
2022/10/04 11:27:55;;;;;;;6.70;6.13;;;15.40;99.90;;;;;;10357049;28;20729;-78
2022/10/04 11:33:29;;;;;;;7.10;6.40;;;15.40;99.90;;;;;;10411313;28;20208;-78
2022/10/04 11:38:56;;;;;;;5.53;5.13;;;15.40;99.90;;;;;;10410318;28;20224;-78
2022/10/04 11:44:33;;;;;;;7.33;6.63;;;15.40;99.90;;;;;;10414989;28;20549;-78
2022/10/04 11:49:55;;;;;;;6.43;5.70;;;15.50;99.90;;;;;;10388294;28;20214;-78
2022/10/04 11:55:22;;;;;;;6.20;5.80;;;15.50;99.90;;;;;;10409192;28;20612;-77
2022/10/04 12:00:26;;;;;;;7.20;6.70;;;15.60;99.90;;;;;;10410153;28;20297;-78
2022/10/04 12:06:04;;;;;;;5.63;5.27;;;15.80;99.90;;;;;;10407698;28;20276;-78
2022/10/04 12:17:43;;;;;;;6.97;6.47;;;16.00;99.90;;;;;;10408043;28;20241;-78
2022/10/04 12:23:02;;;;;;;6.93;6.33;;;16.10;99.90;;;;;;10369833;28;20599;-78
2022/10/04 12:28:36;;;;;;;6.73;6.23;;;16.20;99.90;;;;;;10408859;28;20214;-77
2022/10/04 12:33:47;;;;;;;6.50;6.10;;;16.30;99.90;;;;;;10408918;28;20558;-78
2022/10/04 12:39:03;;;;;;;7.53;7.03;;;16.40;99.90;;;;;;10411592;28;20282;-79
2022/10/04 12:44:19;;;;;;;7.00;6.50;;;16.50;99.90;;;;;;10424661;28;20197;-79
2022/10/04 12:49:31;;;;;;;7.37;6.80;;;16.50;99.90;;;;;;10424677;28;20220;-78
2022/10/04 12:54:38;;;;;;;6.77;6.37;;;16.40;99.90;;;;;;10422651;28;20198;-78
2022/10/04 12:59:53;;;;;;;5.87;5.47;;;16.30;99.90;;;;;;10421426;28;20281;-79
2022/10/04 13:05:02;;;;;;;7.07;6.57;;;16.20;99.90;;;;;;10424027;28;20293;-78
2022/10/04 13:10:24;;;;;;;7.07;6.57;;;16.10;99.90;;;;;;10426713;28;20198;-78
2022/10/04 13:15:30;;;;;;;6.70;6.20;;;16.00;99.90;;;;;;10419205;28;20583;-78
2022/10/04 13:20:41;;;;;;;7.33;6.93;;;16.00;99.90;;;;;;10415070;28;20664;-78
2022/10/04 13:26:00;;;;;;;6.93;6.43;;;15.90;99.90;;;;;;10416311;28;20196;-78
2022/10/04 13:31:10;;;;;;;7.17;6.77;;;15.90;99.90;;;;;;10415763;28;20293;-78
2022/10/04 13:36:17;;;;;;;7.27;6.87;;;15.80;99.90;;;;;;10414497;28;20201;-78
2022/10/04 13:41:32;;;;;;;7.50;6.97;;;15.80;99.90;;;;;;10413447;28;20198;-78
2022/10/04 13:46:44;;;;;;;8.17;7.57;;;15.70;99.90;;;;;;10414121;28;20307;-78
2022/10/04 13:57:37;;;;;;;8.10;7.60;;;15.70;99.90;;;;;;10414854;28;20222;-78
2022/10/04 14:03:13;;;;;;;7.10;6.60;;;15.70;99.90;;;;;;10413651;28;20240;-78
2022/10/04 14:08:42;;;;;;;8.17;7.67;;;15.70;99.90;;;;;;10415511;28;20748;-78
2022/10/04 14:14:25;;;;;;;7.07;6.50;;;15.80;99.90;;;;;;10413458;28;20256;-79
2022/10/04 14:20:03;;;;;;;6.63;6.00;;;16.00;99.90;;;;;;10415723;28;20228;-79
2022/10/04 14:25:27;;;;;;;7.53;6.90;;;16.10;99.90;;;;;;10378736;28;20194;-79
2022/10/04 14:30:40;;;;;;;7.47;6.97;;;16.20;99.90;;;;;;10418275;28;20717;-78
2022/10/04 14:35:47;;;;;;;7.07;6.67;;;16.30;99.90;;;;;;10402744;28;20202;-79
2022/10/04 14:41:33;;;;;;;11.33;10.47;;;16.30;99.90;;;;;;10421389;28;20241;-79
2022/10/04 14:46:45;;;;;;;6.90;6.50;;;16.20;99.90;;;;;;10422360;28;20213;-79
2022/10/04 14:52:05;;;;;;;7.07;6.47;;;16.10;99.90;;;;;;10420919;28;20260;-79
2022/10/04 14:57:19;;;;;;;7.63;6.93;;;16.10;99.90;;;;;;10420565;28;20223;-78
2022/10/04 15:02:55;;;;;;;6.70;6.30;;;16.10;99.90;;;;;;10420180;28;20206;-79
2022/10/04 15:08:24;;;;;;;7.30;6.80;;;16.10;99.90;;;;;;10419588;28;20214;-79
2022/10/04 15:13:34;;;;;;;6.27;5.97;;;16.20;99.90;;;;;;10417288;28;20289;-78
2022/10/04 15:18:52;;;;;;;8.23;7.40;;;16.10;99.90;;;;;;10410659;28;20243;-78
2022/10/04 15:23:58;;;;;;;8.80;8.20;;;16.20;99.90;;;;;;10411598;28;20213;-78
2022/10/04 15:29:22;;;;;;;7.97;7.27;;;16.30;99.90;;;;;;10411337;28;20794;-78
2022/10/04 15:34:35;;;;;;;8.20;7.60;;;16.50;99.90;;;;;;10411504;28;20617;-78
2022/10/04 15:39:57;;;;;;;6.70;6.10;;;16.60;99.90;;;;;;10410459;28;20268;-78
2022/10/04 15:45:25;;;;;;;8.87;8.10;;;16.70;99.90;;;;;;10413778;28;20181;-78
2022/10/04 15:50:31;;;;;;;8.70;8.10;;;16.70;99.90;;;;;;10411029;28;20848;-78
2022/10/04 15:55:56;;;;;;;7.37;6.87;;;16.70;99.90;;;;;;10411443;28;20201;-78
2022/10/04 16:01:21;;;;;;;7.67;7.07;;;16.80;99.90;;;;;;10412838;28;20226;-78
2022/10/04 16:06:27;;;;;;;7.27;6.67;;;16.80;99.90;;;;;;10369606;28;20225;-78
2022/10/04 16:11:59;;;;;;;7.50;7.00;;;16.80;99.90;;;;;;10412371;28;20198;-77
2022/10/04 16:17:27;;;;;;;7.70;6.93;;;16.70;99.90;;;;;;10417011;28;20328;-78
2022/10/04 16:22:31;;;;;;;10.20;9.13;;;16.60;99.90;;;;;;10409455;28;20189;-78
2022/10/04 16:27:58;;;;;;;7.27;6.67;;;16.50;99.90;;;;;;10423007;28;20214;-79
2022/10/04 16:33:13;;;;;;;6.60;6.20;;;16.50;99.90;;;;;;10428065;28;20189;-79
2022/10/04 16:38:23;;;;;;;16.30;14.90;;;16.40;99.90;;;;;;10423207;28;20228;-79
2022/10/04 16:43:28;;;;;;;7.40;6.90;;;16.30;99.90;;;;;;10424164;28;20268;-79
2022/10/04 16:48:47;;;;;;;6.97;6.30;;;16.20;99.90;;;;;;10424213;28;20245;-79
2022/10/04 16:53:55;;;;;;;7.70;7.10;;;16.10;99.90;;;;;;10422893;28;20193;-78
2022/10/04 16:59:00;;;;;;;8.60;7.90;;;16.00;99.90;;;;;;10422823;28;20226;-78
2022/10/04 17:04:23;;;;;;;8.33;7.73;;;16.00;99.90;;;;;;10420652;28;20194;-77
2022/10/04 17:09:29;;;;;;;7.60;7.10;;;15.80;99.90;;;;;;10413405;28;20289;-79
2022/10/04 17:15:01;;;;;;;8.83;7.57;;;15.70;99.90;;;;;;10413452;28;20245;-79
2022/10/04 17:20:21;;;;;;;8.43;7.73;;;15.70;99.90;;;;;;10420782;28;20226;-78
2022/10/04 17:25:32;;;;;;;8.60;7.63;;;15.50;99.90;;;;;;10416703;28;20216;-79
2022/10/04 17:30:47;;;;;;;9.43;8.53;;;15.40;99.90;;;;;;10416934;28;20296;-78
2022/10/04 17:36:02;;;;;;;11.70;10.60;;;15.30;99.90;;;;;;10421061;28;20236;-78
2022/10/04 17:41:16;;;;;;;15.03;13.57;;;15.30;99.90;;;;;;10418745;28;20213;-78
2022/10/04 17:46:29;;;;;;;12.10;11.07;;;15.20;99.90;;;;;;10420875;28;20202;-79
2022/10/04 17:57:21;;;;;;;9.00;8.10;;;15.10;99.90;;;;;;10419134;28;20226;-77
2022/10/04 18:02:33;;;;;;;10.23;9.43;;;15.00;99.90;;;;;;10411988;28;20248;-77
2022/10/04 18:07:43;;;;;;;11.23;10.43;;;14.90;99.90;;;;;;10412672;28;20213;-77
2022/10/04 18:12:51;;;;;;;9.80;9.10;;;14.90;99.90;;;;;;10412151;28;20237;-76
2022/10/04 18:18:07;;;;;;;10.47;9.67;;;14.80;99.90;;;;;;10410179;28;20228;-77
2022/10/04 18:23:19;;;;;;;9.13;8.40;;;14.80;99.90;;;;;;10410739;28;20194;-77
2022/10/04 18:28:22;;;;;;;10.50;9.63;;;14.70;99.90;;;;;;10411433;28;20223;-77
2022/10/04 18:33:30;;;;;;;9.60;8.70;;;14.70;99.90;;;;;;10411835;28;20205;-76
2022/10/04 18:38:34;;;;;;;10.30;9.50;;;14.60;99.90;;;;;;10408695;28;20214;-76
2022/10/04 18:43:42;;;;;;;10.43;9.50;;;14.60;99.90;;;;;;10406340;28;20225;-76
2022/10/04 18:48:52;;;;;;;10.20;9.30;;;14.50;99.90;;;;;;10409147;28;20217;-76
2022/10/04 18:54:09;;;;;;;13.27;11.63;;;14.50;99.90;;;;;;10408312;28;20671;-76
2022/10/04 19:04:47;;;;;;;14.80;13.30;;;14.40;99.90;;;;;;10409521;28;20247;-77
2022/10/04 19:10:08;;;;;;;10.80;10.00;;;14.30;99.90;;;;;;10409124;28;20629;-77
2022/10/04 19:15:25;;;;;;;12.40;11.20;;;14.30;99.90;;;;;;10402058;28;20206;-76
2022/10/04 19:20:37;;;;;;;12.00;11.07;;;14.20;99.90;;;;;;10408629;28;20226;-76
2022/10/04 19:25:45;;;;;;;12.93;11.73;;;14.20;99.90;;;;;;10408886;28;20198;-76
2022/10/04 19:30:59;;;;;;;11.17;10.30;;;14.20;99.90;;;;;;10409129;28;20267;-76
2022/10/04 19:36:44;;;;;;;12.10;11.00;;;14.10;99.90;;;;;;10408386;28;20202;-77
2022/10/04 19:41:56;;;;;;;11.07;10.27;;;14.10;99.90;;;;;;10380202;28;20225;-76
2022/10/04 19:47:03;;;;;;;11.00;10.20;;;14.00;99.90;;;;;;10408631;28;20226;-77
2022/10/04 19:52:20;;;;;;;12.80;11.70;;;14.00;99.90;;;;;;10415853;28;20197;-76
2022/10/04 19:57:35;;;;;;;10.20;9.50;;;14.00;99.90;;;;;;10416963;28;20237;-76
2022/10/04 20:02:37;;;;;;;10.10;9.30;;;14.00;99.90;;;;;;10417416;28;20217;-77
2022/10/04 20:07:39;;;;;;;9.97;9.17;;;14.00;99.90;;;;;;10416962;28;20210;-76
2022/10/04 20:13:04;;;;;;;11.00;10.07;;;13.90;99.90;;;;;;10415528;28;20209;-76
2022/10/04 20:18:36;;;;;;;12.20;10.67;;;13.90;99.90;;;;;;10411148;28;20233;-76
2022/10/04 20:23:54;;;;;;;10.47;9.67;;;13.90;99.90;;;;;;10415985;28;20206;-76
2022/10/04 20:28:57;;;;;;;11.07;10.17;;;13.90;99.90;;;;;;10414956;28;20227;-76
2022/10/04 20:34:31;;;;;;;9.00;8.30;;;13.80;99.90;;;;;;10416117;28;20680;-76
2022/10/04 20:40:00;;;;;;;9.40;8.70;;;13.80;99.90;;;;;;10415423;28;20224;-76
2022/10/04 20:45:22;;;;;;;9.27;8.57;;;13.80;99.90;;;;;;10414561;28;20289;-76
2022/10/04 20:50:37;;;;;;;9.80;8.87;;;13.80;99.90;;;;;;10409527;28;20225;-76
2022/10/04 20:55:39;;;;;;;8.63;7.73;;;13.70;99.90;;;;;;10420167;28;20196;-76
2022/10/04 21:00:52;;;;;;;17.67;15.90;;;13.70;99.90;;;;;;10425448;28;20315;-77
2022/10/04 21:06:04;;;;;;;13.70;12.40;;;13.70;99.90;;;;;;10417532;28;20624;-78
2022/10/04 21:11:12;;;;;;;16.10;14.60;;;13.70;99.90;;;;;;10415197;28;20276;-76
2022/10/04 21:16:34;;;;;;;8.27;7.50;;;13.70;99.90;;;;;;10376656;28;20198;-78
2022/10/04 21:21:48;;;;;;;62.70;45.57;;;13.60;99.90;;;;;;10400936;28;20217;-77
2022/10/04 21:26:55;;;;;;;96.03;67.57;;;13.60;99.90;;;;;;10415745;28;20316;-76
2022/10/04 21:31:59;;;;;;;63.07;46.13;;;13.60;99.90;;;;;;10414702;28;20193;-77
2022/10/04 21:37:01;;;;;;;7.70;7.00;;;13.60;99.90;;;;;;10414511;28;20685;-76
2022/10/04 21:42:04;;;;;;;9.70;8.70;;;13.50;99.90;;;;;;10412417;28;20268;-77
2022/10/04 21:47:08;;;;;;;12.60;11.37;;;13.50;99.90;;;;;;10412794;28;20230;-77
2022/10/04 21:52:10;;;;;;;19.90;17.30;;;13.50;99.90;;;;;;10411858;28;20244;-77
2022/10/04 21:57:16;;;;;;;20.20;18.27;;;13.40;99.90;;;;;;10417288;28;20222;-76
2022/10/04 22:02:20;;;;;;;28.43;23.07;;;13.40;99.90;;;;;;10422603;28;20276;-78
2022/10/04 22:07:22;;;;;;;28.30;25.50;;;13.40;99.90;;;;;;10420228;28;20213;-76
2022/10/04 22:12:25;;;;;;;38.83;34.73;;;13.40;99.90;;;;;;10423288;28;20612;-78
2022/10/04 22:17:28;;;;;;;29.20;26.30;;;13.40;99.90;;;;;;10421935;28;20283;-78
2022/10/04 22:22:31;;;;;;;22.00;19.80;;;13.40;99.90;;;;;;10417212;28;20218;-77
2022/10/04 22:27:33;;;;;;;11.47;10.33;;;13.30;99.90;;;;;;10416267;28;20716;-77
2022/10/04 22:32:38;;;;;;;51.93;34.90;;;13.30;99.90;;;;;;10416251;28;20218;-77
2022/10/04 22:37:40;;;;;;;15.77;13.20;;;13.30;99.90;;;;;;10416793;28;20293;-78
2022/10/04 22:42:43;;;;;;;8.70;7.90;;;13.20;99.90;;;;;;10415644;28;20217;-78
2022/10/04 22:47:46;;;;;;;9.07;8.30;;;13.20;99.90;;;;;;10416215;28;20218;-76
2022/10/04 22:52:48;;;;;;;8.87;8.17;;;13.20;99.90;;;;;;10415888;28;20201;-77
2022/10/04 22:57:51;;;;;;;7.93;7.23;;;13.10;99.90;;;;;;10417578;28;20647;-78
2022/10/04 23:02:55;;;;;;;8.73;8.03;;;13.10;99.90;;;;;;10416785;28;20209;-78
2022/10/04 23:07:57;;;;;;;8.63;7.70;;;13.00;99.90;;;;;;10417416;28;20237;-78
2022/10/04 23:12:59;;;;;;;9.70;7.90;;;13.00;99.90;;;;;;10414961;28;20198;-78
2022/10/04 23:18:11;;;;;;;8.60;7.90;;;13.00;99.90;;;;;;10399126;28;20307;-78
2022/10/04 23:23:17;;;;;;;8.47;7.87;;;13.00;99.90;;;;;;10416183;28;20194;-78
2022/10/04 23:28:19;;;;;;;11.80;10.70;;;13.00;99.90;;;;;;10417924;28;20325;-78
2022/10/04 23:33:23;;;;;;;81.93;40.97;;;13.00;99.90;;;;;;10421517;28;20206;-78
2022/10/04 23:38:25;;;;;;;9.53;8.73;;;13.00;99.90;;;;;;10400730;28;20214;-78
2022/10/04 23:43:30;;;;;;;8.70;7.90;;;13.00;99.90;;;;;;10417321;28;20614;-78
2022/10/04 23:48:34;;;;;;;8.53;7.83;;;13.00;99.90;;;;;;10416216;28;20221;-79
2022/10/04 23:53:36;;;;;;;15.73;11.30;;;12.90;99.90;;;;;;10417755;28;20197;-78
2022/10/04 23:58:40;;;;;;;9.33;8.43;;;12.90;99.90;;;;;;10416547;28;20245;-79
